sensor_id;sensor_type;location;lat;lon;timestamp;P1;durP1;ratioP1;P2;durP2;ratioP2
17451;SDS011;8843;48.838;9.324;2023-04-24T00:01:23;1.03;;;0.80;;
17451;SDS011;8843;48.838;9.324;2023-04-24T00:03:50;1.43;;;1.00;;
17451;SDS011;8843;48.838;9.324;2023-04-24T00:06:17;0.90;;;0.70;;
17451;SDS011;8843;48.838;9.324;2023-04-24T00:08:44;2.63;;;0.80;;
17451;SDS011;8843;48.838;9.324;2023-04-24T00:11:10;1.23;;;0.90;;
17451;SDS011;8843;48.838;9.324;2023-04-24T00:13:37;1.10;;;0.93;;
17451;SDS011;8843;48.838;9.324;2023-04-24T00:16:04;1.10;;;0.97;;
17451;SDS011;8843;48.838;9.324;2023-04-24T00:18:33;2.17;;;0.90;;
17451;SDS011;8843;48.838;9.324;2023-04-24T00:20:59;0.73;;;0.73;;
17451;SDS011;8843;48.838;9.324;2023-04-24T00:23:26;0.80;;;0.80;;
17451;SDS011;8843;48.838;9.324;2023-04-24T00:25:53;1.63;;;1.20;;
17451;SDS011;8843;48.838;9.324;2023-04-24T00:28:20;3.23;;;0.90;;
17451;SDS011;8843;48.838;9.324;2023-04-24T00:30:47;2.23;;;1.00;;
17451;SDS011;8843;48.838;9.324;2023-04-24T00:33:14;1.63;;;1.00;;
17451;SDS011;8843;48.838;9.324;2023-04-24T00:35:42;0.90;;;0.90;;
17451;SDS011;8843;48.838;9.324;2023-04-24T00:38:09;0.90;;;0.90;;
17451;SDS011;8843;48.838;9.324;2023-04-24T00:40:36;1.53;;;1.00;;
17451;SDS011;8843;48.838;9.324;2023-04-24T00:43:03;1.70;;;1.10;;
17451;SDS011;8843;48.838;9.324;2023-04-24T00:45:30;1.33;;;0.90;;
17451;SDS011;8843;48.838;9.324;2023-04-24T00:47:57;2.20;;;1.07;;
17451;SDS011;8843;48.838;9.324;2023-04-24T00:50:24;1.50;;;0.93;;
17451;SDS011;8843;48.838;9.324;2023-04-24T00:52:52;0.90;;;0.90;;
17451;SDS011;8843;48.838;9.324;2023-04-24T00:55:20;1.07;;;0.97;;
17451;SDS011;8843;48.838;9.324;2023-04-24T00:57:47;1.07;;;0.90;;
17451;SDS011;8843;48.838;9.324;2023-04-24T01:00:14;1.03;;;0.90;;
17451;SDS011;8843;48.838;9.324;2023-04-24T01:02:42;1.33;;;0.83;;
17451;SDS011;8843;48.838;9.324;2023-04-24T01:05:10;1.53;;;1.00;;
17451;SDS011;8843;48.838;9.324;2023-04-24T01:07:38;1.10;;;1.00;;
17451;SDS011;8843;48.838;9.324;2023-04-24T01:10:10;2.37;;;1.10;;
17451;SDS011;8843;48.838;9.324;2023-04-24T01:12:38;0.90;;;0.90;;
17451;SDS011;8843;48.838;9.324;2023-04-24T01:15:06;0.80;;;0.80;;
17451;SDS011;8843;48.838;9.324;2023-04-24T01:17:34;1.80;;;0.97;;
17451;SDS011;8843;48.838;9.324;2023-04-24T01:20:01;2.00;;;0.77;;
17451;SDS011;8843;48.838;9.324;2023-04-24T01:22:32;0.70;;;0.70;;
17451;SDS011;8843;48.838;9.324;2023-04-24T01:24:59;0.67;;;0.67;;
17451;SDS011;8843;48.838;9.324;2023-04-24T01:27:26;2.10;;;1.37;;
17451;SDS011;8843;48.838;9.324;2023-04-24T01:29:53;1.47;;;0.80;;
17451;SDS011;8843;48.838;9.324;2023-04-24T01:32:20;1.47;;;1.17;;
17451;SDS011;8843;48.838;9.324;2023-04-24T01:34:48;0.97;;;0.90;;
17451;SDS011;8843;48.838;9.324;2023-04-24T01:37:15;0.77;;;0.77;;
17451;SDS011;8843;48.838;9.324;2023-04-24T01:39:43;1.23;;;1.13;;
17451;SDS011;8843;48.838;9.324;2023-04-24T01:42:10;0.80;;;0.80;;
17451;SDS011;8843;48.838;9.324;2023-04-24T01:44:39;2.07;;;0.90;;
17451;SDS011;8843;48.838;9.324;2023-04-24T01:47:07;2.00;;;0.80;;
17451;SDS011;8843;48.838;9.324;2023-04-24T01:49:35;1.43;;;1.00;;
17451;SDS011;8843;48.838;9.324;2023-04-24T01:52:03;0.83;;;0.80;;
17451;SDS011;8843;48.838;9.324;2023-04-24T01:54:30;2.87;;;0.83;;
17451;SDS011;8843;48.838;9.324;2023-04-24T01:56:58;0.70;;;0.70;;
17451;SDS011;8843;48.838;9.324;2023-04-24T01:59:27;1.43;;;0.80;;
17451;SDS011;8843;48.838;9.324;2023-04-24T02:01:54;1.17;;;1.00;;
17451;SDS011;8843;48.838;9.324;2023-04-24T02:04:21;0.93;;;0.90;;
17451;SDS011;8843;48.838;9.324;2023-04-24T02:06:48;0.97;;;0.87;;
17451;SDS011;8843;48.838;9.324;2023-04-24T02:09:15;0.87;;;0.87;;
17451;SDS011;8843;48.838;9.324;2023-04-24T02:11:42;1.30;;;1.20;;
17451;SDS011;8843;48.838;9.324;2023-04-24T02:14:10;0.70;;;0.70;;
17451;SDS011;8843;48.838;9.324;2023-04-24T02:16:37;2.53;;;0.90;;
17451;SDS011;8843;48.838;9.324;2023-04-24T02:19:04;1.53;;;0.90;;
17451;SDS011;8843;48.838;9.324;2023-04-24T02:21:31;1.47;;;1.03;;
17451;SDS011;8843;48.838;9.324;2023-04-24T02:23:58;1.60;;;0.77;;
17451;SDS011;8843;48.838;9.324;2023-04-24T02:26:25;1.70;;;0.97;;
17451;SDS011;8843;48.838;9.324;2023-04-24T02:28:52;2.13;;;1.07;;
17451;SDS011;8843;48.838;9.324;2023-04-24T02:31:20;0.70;;;0.70;;
17451;SDS011;8843;48.838;9.324;2023-04-24T02:33:47;1.03;;;0.90;;
17451;SDS011;8843;48.838;9.324;2023-04-24T02:36:14;0.70;;;0.70;;
17451;SDS011;8843;48.838;9.324;2023-04-24T02:38:40;1.33;;;0.70;;
17451;SDS011;8843;48.838;9.324;2023-04-24T02:41:07;2.07;;;0.70;;
17451;SDS011;8843;48.838;9.324;2023-04-24T02:43:34;3.13;;;0.83;;
17451;SDS011;8843;48.838;9.324;2023-04-24T02:46:01;0.70;;;0.60;;
17451;SDS011;8843;48.838;9.324;2023-04-24T02:48:29;0.90;;;0.90;;
17451;SDS011;8843;48.838;9.324;2023-04-24T02:50:56;1.53;;;1.23;;
17451;SDS011;8843;48.838;9.324;2023-04-24T02:53:23;0.90;;;0.90;;
17451;SDS011;8843;48.838;9.324;2023-04-24T02:55:50;1.17;;;0.83;;
17451;SDS011;8843;48.838;9.324;2023-04-24T02:58:17;1.00;;;0.90;;
17451;SDS011;8843;48.838;9.324;2023-04-24T03:00:45;2.67;;;0.90;;
17451;SDS011;8843;48.838;9.324;2023-04-24T03:03:11;2.10;;;1.10;;
17451;SDS011;8843;48.838;9.324;2023-04-24T03:05:40;1.33;;;1.00;;
17451;SDS011;8843;48.838;9.324;2023-04-24T03:08:07;0.70;;;0.70;;
17451;SDS011;8843;48.838;9.324;2023-04-24T03:10:33;0.83;;;0.80;;
17451;SDS011;8843;48.838;9.324;2023-04-24T03:13:00;3.80;;;1.00;;
17451;SDS011;8843;48.838;9.324;2023-04-24T03:15:27;0.90;;;0.90;;
17451;SDS011;8843;48.838;9.324;2023-04-24T03:17:54;1.20;;;1.07;;
17451;SDS011;8843;48.838;9.324;2023-04-24T03:20:21;4.07;;;1.10;;
17451;SDS011;8843;48.838;9.324;2023-04-24T03:22:49;1.00;;;0.90;;
17451;SDS011;8843;48.838;9.324;2023-04-24T03:25:16;1.43;;;0.80;;
17451;SDS011;8843;48.838;9.324;2023-04-24T03:27:43;1.00;;;1.00;;
17451;SDS011;8843;48.838;9.324;2023-04-24T03:30:10;1.13;;;0.80;;
17451;SDS011;8843;48.838;9.324;2023-04-24T03:32:37;1.20;;;0.90;;
17451;SDS011;8843;48.838;9.324;2023-04-24T03:35:05;2.53;;;0.90;;
17451;SDS011;8843;48.838;9.324;2023-04-24T03:37:33;1.17;;;1.07;;
17451;SDS011;8843;48.838;9.324;2023-04-24T03:40:01;2.20;;;0.97;;
17451;SDS011;8843;48.838;9.324;2023-04-24T03:42:29;1.67;;;1.00;;
17451;SDS011;8843;48.838;9.324;2023-04-24T03:44:56;2.37;;;0.90;;
17451;SDS011;8843;48.838;9.324;2023-04-24T03:47:23;3.47;;;1.00;;
17451;SDS011;8843;48.838;9.324;2023-04-24T03:49:50;1.90;;;1.17;;
17451;SDS011;8843;48.838;9.324;2023-04-24T03:52:17;1.07;;;1.00;;
17451;SDS011;8843;48.838;9.324;2023-04-24T03:54:44;1.10;;;0.93;;
17451;SDS011;8843;48.838;9.324;2023-04-24T03:57:12;1.53;;;1.23;;
17451;SDS011;8843;48.838;9.324;2023-04-24T03:59:39;1.43;;;0.90;;
17451;SDS011;8843;48.838;9.324;2023-04-24T04:02:06;1.17;;;0.80;;
17451;SDS011;8843;48.838;9.324;2023-04-24T04:04:32;1.17;;;0.90;;
17451;SDS011;8843;48.838;9.324;2023-04-24T04:06:59;0.97;;;0.90;;
17451;SDS011;8843;48.838;9.324;2023-04-24T04:09:27;1.20;;;0.80;;
17451;SDS011;8843;48.838;9.324;2023-04-24T04:11:54;0.83;;;0.80;;
17451;SDS011;8843;48.838;9.324;2023-04-24T04:14:23;1.27;;;1.00;;
17451;SDS011;8843;48.838;9.324;2023-04-24T04:16:49;1.53;;;1.00;;
17451;SDS011;8843;48.838;9.324;2023-04-24T04:19:17;3.90;;;0.90;;
17451;SDS011;8843;48.838;9.324;2023-04-24T04:21:43;0.90;;;0.90;;
17451;SDS011;8843;48.838;9.324;2023-04-24T04:24:15;0.67;;;0.67;;
17451;SDS011;8843;48.838;9.324;2023-04-24T04:26:42;1.00;;;1.00;;
17451;SDS011;8843;48.838;9.324;2023-04-24T04:29:11;3.20;;;0.90;;
17451;SDS011;8843;48.838;9.324;2023-04-24T04:31:39;0.90;;;0.90;;
17451;SDS011;8843;48.838;9.324;2023-04-24T04:34:06;3.23;;;1.07;;
17451;SDS011;8843;48.838;9.324;2023-04-24T04:36:34;1.77;;;0.90;;
17451;SDS011;8843;48.838;9.324;2023-04-24T04:39:01;1.23;;;0.90;;
17451;SDS011;8843;48.838;9.324;2023-04-24T04:41:29;1.10;;;1.00;;
17451;SDS011;8843;48.838;9.324;2023-04-24T04:43:56;0.93;;;0.90;;
17451;SDS011;8843;48.838;9.324;2023-04-24T04:46:24;1.23;;;0.90;;
17451;SDS011;8843;48.838;9.324;2023-04-24T04:48:53;3.40;;;1.10;;
17451;SDS011;8843;48.838;9.324;2023-04-24T04:51:21;1.33;;;0.90;;
17451;SDS011;8843;48.838;9.324;2023-04-24T04:53:48;1.93;;;0.87;;
17451;SDS011;8843;48.838;9.324;2023-04-24T04:56:15;1.67;;;1.07;;
17451;SDS011;8843;48.838;9.324;2023-04-24T04:58:42;0.67;;;0.67;;
17451;SDS011;8843;48.838;9.324;2023-04-24T05:01:09;2.80;;;1.00;;
17451;SDS011;8843;48.838;9.324;2023-04-24T05:03:35;2.00;;;0.80;;
17451;SDS011;8843;48.838;9.324;2023-04-24T05:06:04;0.90;;;0.90;;
17451;SDS011;8843;48.838;9.324;2023-04-24T05:08:32;1.73;;;1.17;;
17451;SDS011;8843;48.838;9.324;2023-04-24T05:10:58;1.33;;;0.97;;
17451;SDS011;8843;48.838;9.324;2023-04-24T05:13:25;2.60;;;1.07;;
17451;SDS011;8843;48.838;9.324;2023-04-24T05:15:52;1.00;;;0.93;;
17451;SDS011;8843;48.838;9.324;2023-04-24T05:18:19;1.17;;;1.07;;
17451;SDS011;8843;48.838;9.324;2023-04-24T05:20:46;0.90;;;0.90;;
17451;SDS011;8843;48.838;9.324;2023-04-24T05:23:14;0.90;;;0.90;;
17451;SDS011;8843;48.838;9.324;2023-04-24T05:25:41;1.83;;;0.97;;
17451;SDS011;8843;48.838;9.324;2023-04-24T05:28:08;1.43;;;1.07;;
17451;SDS011;8843;48.838;9.324;2023-04-24T05:30:35;1.53;;;1.20;;
17451;SDS011;8843;48.838;9.324;2023-04-24T05:33:01;1.00;;;1.00;;
17451;SDS011;8843;48.838;9.324;2023-04-24T05:35:28;1.30;;;1.00;;
17451;SDS011;8843;48.838;9.324;2023-04-24T05:37:55;1.60;;;1.20;;
17451;SDS011;8843;48.838;9.324;2023-04-24T05:40:23;1.20;;;1.10;;
17451;SDS011;8843;48.838;9.324;2023-04-24T05:42:50;1.50;;;1.17;;
17451;SDS011;8843;48.838;9.324;2023-04-24T05:45:17;1.03;;;1.00;;
17451;SDS011;8843;48.838;9.324;2023-04-24T05:47:44;1.17;;;1.00;;
17451;SDS011;8843;48.838;9.324;2023-04-24T05:50:11;1.37;;;1.20;;
17451;SDS011;8843;48.838;9.324;2023-04-24T05:52:38;1.50;;;1.37;;
17451;SDS011;8843;48.838;9.324;2023-04-24T05:55:05;1.40;;;1.10;;
17451;SDS011;8843;48.838;9.324;2023-04-24T05:57:34;1.30;;;1.10;;
17451;SDS011;8843;48.838;9.324;2023-04-24T06:00:01;1.60;;;1.10;;
17451;SDS011;8843;48.838;9.324;2023-04-24T06:02:29;1.13;;;1.03;;
17451;SDS011;8843;48.838;9.324;2023-04-24T06:04:57;1.30;;;1.20;;
17451;SDS011;8843;48.838;9.324;2023-04-24T06:07:25;1.20;;;1.10;;
17451;SDS011;8843;48.838;9.324;2023-04-24T06:09:52;1.33;;;1.30;;
17451;SDS011;8843;48.838;9.324;2023-04-24T06:12:19;1.30;;;1.30;;
17451;SDS011;8843;48.838;9.324;2023-04-24T06:14:47;1.90;;;1.33;;
17451;SDS011;8843;48.838;9.324;2023-04-24T06:17:15;2.60;;;1.67;;
17451;SDS011;8843;48.838;9.324;2023-04-24T06:19:42;1.30;;;1.20;;
17451;SDS011;8843;48.838;9.324;2023-04-24T06:22:09;1.40;;;1.30;;
17451;SDS011;8843;48.838;9.324;2023-04-24T06:24:36;1.20;;;1.10;;
17451;SDS011;8843;48.838;9.324;2023-04-24T06:27:02;4.37;;;1.50;;
17451;SDS011;8843;48.838;9.324;2023-04-24T06:29:29;1.30;;;1.20;;
17451;SDS011;8843;48.838;9.324;2023-04-24T06:31:58;1.20;;;1.10;;
17451;SDS011;8843;48.838;9.324;2023-04-24T06:34:24;1.10;;;1.10;;
17451;SDS011;8843;48.838;9.324;2023-04-24T06:36:51;1.90;;;1.60;;
17451;SDS011;8843;48.838;9.324;2023-04-24T06:39:18;1.23;;;1.17;;
17451;SDS011;8843;48.838;9.324;2023-04-24T06:41:45;1.30;;;1.20;;
17451;SDS011;8843;48.838;9.324;2023-04-24T06:44:12;2.07;;;1.23;;
17451;SDS011;8843;48.838;9.324;2023-04-24T06:46:39;1.77;;;1.40;;
17451;SDS011;8843;48.838;9.324;2023-04-24T06:49:08;1.40;;;1.30;;
17451;SDS011;8843;48.838;9.324;2023-04-24T06:51:34;1.53;;;1.43;;
17451;SDS011;8843;48.838;9.324;2023-04-24T06:54:01;1.60;;;1.50;;
17451;SDS011;8843;48.838;9.324;2023-04-24T06:56:28;1.67;;;1.47;;
17451;SDS011;8843;48.838;9.324;2023-04-24T06:58:55;2.27;;;1.40;;
17451;SDS011;8843;48.838;9.324;2023-04-24T07:01:22;1.50;;;1.40;;
17451;SDS011;8843;48.838;9.324;2023-04-24T07:03:49;5.33;;;1.30;;
17451;SDS011;8843;48.838;9.324;2023-04-24T07:06:17;2.67;;;1.30;;
17451;SDS011;8843;48.838;9.324;2023-04-24T07:08:46;1.97;;;1.50;;
17451;SDS011;8843;48.838;9.324;2023-04-24T07:11:13;2.93;;;1.50;;
17451;SDS011;8843;48.838;9.324;2023-04-24T07:13:40;3.23;;;1.87;;
17451;SDS011;8843;48.838;9.324;2023-04-24T07:16:07;1.73;;;1.53;;
17451;SDS011;8843;48.838;9.324;2023-04-24T07:18:34;1.50;;;1.40;;
17451;SDS011;8843;48.838;9.324;2023-04-24T07:21:01;1.90;;;1.33;;
17451;SDS011;8843;48.838;9.324;2023-04-24T07:23:30;1.53;;;1.40;;
17451;SDS011;8843;48.838;9.324;2023-04-24T07:25:56;3.53;;;1.70;;
17451;SDS011;8843;48.838;9.324;2023-04-24T07:28:23;1.60;;;1.50;;
17451;SDS011;8843;48.838;9.324;2023-04-24T07:30:50;1.80;;;1.63;;
17451;SDS011;8843;48.838;9.324;2023-04-24T07:33:19;1.47;;;1.37;;
17451;SDS011;8843;48.838;9.324;2023-04-24T07:35:45;3.83;;;1.60;;
17451;SDS011;8843;48.838;9.324;2023-04-24T07:38:13;2.40;;;1.60;;
17451;SDS011;8843;48.838;9.324;2023-04-24T07:40:41;1.50;;;1.40;;
17451;SDS011;8843;48.838;9.324;2023-04-24T07:43:08;1.60;;;1.50;;
17451;SDS011;8843;48.838;9.324;2023-04-24T07:45:35;1.50;;;1.40;;
17451;SDS011;8843;48.838;9.324;2023-04-24T07:48:02;1.43;;;1.37;;
17451;SDS011;8843;48.838;9.324;2023-04-24T07:50:29;3.23;;;1.70;;
17451;SDS011;8843;48.838;9.324;2023-04-24T07:52:56;2.60;;;1.60;;
17451;SDS011;8843;48.838;9.324;2023-04-24T07:55:23;3.77;;;1.60;;
17451;SDS011;8843;48.838;9.324;2023-04-24T07:57:52;1.33;;;1.23;;
17451;SDS011;8843;48.838;9.324;2023-04-24T08:00:19;2.17;;;1.40;;
17451;SDS011;8843;48.838;9.324;2023-04-24T08:02:46;1.40;;;1.30;;
17451;SDS011;8843;48.838;9.324;2023-04-24T08:05:13;2.47;;;1.50;;
17451;SDS011;8843;48.838;9.324;2023-04-24T08:07:40;1.50;;;1.40;;
17451;SDS011;8843;48.838;9.324;2023-04-24T08:10:09;1.40;;;1.30;;
17451;SDS011;8843;48.838;9.324;2023-04-24T08:12:36;1.50;;;1.40;;
17451;SDS011;8843;48.838;9.324;2023-04-24T08:15:05;2.07;;;1.50;;
17451;SDS011;8843;48.838;9.324;2023-04-24T08:17:33;1.77;;;1.33;;
17451;SDS011;8843;48.838;9.324;2023-04-24T08:20:01;2.30;;;1.40;;
17451;SDS011;8843;48.838;9.324;2023-04-24T08:22:28;2.93;;;1.40;;
17451;SDS011;8843;48.838;9.324;2023-04-24T08:24:55;1.60;;;1.50;;
17451;SDS011;8843;48.838;9.324;2023-04-24T08:27:22;1.60;;;1.50;;
17451;SDS011;8843;48.838;9.324;2023-04-24T08:29:49;3.47;;;1.43;;
17451;SDS011;8843;48.838;9.324;2023-04-24T08:32:17;1.40;;;1.30;;
17451;SDS011;8843;48.838;9.324;2023-04-24T08:34:44;1.80;;;1.50;;
17451;SDS011;8843;48.838;9.324;2023-04-24T08:37:11;2.73;;;1.50;;
17451;SDS011;8843;48.838;9.324;2023-04-24T08:39:38;2.23;;;1.60;;
17451;SDS011;8843;48.838;9.324;2023-04-24T08:42:05;1.77;;;1.53;;
17451;SDS011;8843;48.838;9.324;2023-04-24T08:44:33;1.97;;;1.77;;
17451;SDS011;8843;48.838;9.324;2023-04-24T08:47:01;2.10;;;1.63;;
17451;SDS011;8843;48.838;9.324;2023-04-24T08:49:30;2.10;;;1.60;;
17451;SDS011;8843;48.838;9.324;2023-04-24T08:51:57;3.97;;;1.50;;
17451;SDS011;8843;48.838;9.324;2023-04-24T08:54:25;1.57;;;1.33;;
17451;SDS011;8843;48.838;9.324;2023-04-24T08:56:53;2.73;;;1.67;;
17451;SDS011;8843;48.838;9.324;2023-04-24T08:59:27;1.43;;;1.33;;
17451;SDS011;8843;48.838;9.324;2023-04-24T09:01:54;1.57;;;1.47;;
17451;SDS011;8843;48.838;9.324;2023-04-24T09:04:22;1.90;;;1.30;;
17451;SDS011;8843;48.838;9.324;2023-04-24T09:06:52;2.60;;;1.70;;
17451;SDS011;8843;48.838;9.324;2023-04-24T09:09:22;1.20;;;1.10;;
17451;SDS011;8843;48.838;9.324;2023-04-24T09:11:50;1.10;;;1.10;;
17451;SDS011;8843;48.838;9.324;2023-04-24T09:14:20;1.47;;;1.37;;
17451;SDS011;8843;48.838;9.324;2023-04-24T09:16:48;1.73;;;1.40;;
17451;SDS011;8843;48.838;9.324;2023-04-24T09:19:15;1.97;;;1.40;;
17451;SDS011;8843;48.838;9.324;2023-04-24T09:21:45;1.83;;;1.47;;
17451;SDS011;8843;48.838;9.324;2023-04-24T09:24:16;2.20;;;1.50;;
17451;SDS011;8843;48.838;9.324;2023-04-24T09:26:45;1.50;;;1.40;;
17451;SDS011;8843;48.838;9.324;2023-04-24T09:29:14;2.07;;;1.20;;
17451;SDS011;8843;48.838;9.324;2023-04-24T09:31:41;2.10;;;1.30;;
17451;SDS011;8843;48.838;9.324;2023-04-24T09:34:08;1.70;;;1.07;;
17451;SDS011;8843;48.838;9.324;2023-04-24T09:36:36;1.07;;;1.07;;
17451;SDS011;8843;48.838;9.324;2023-04-24T09:39:05;1.53;;;1.17;;
17451;SDS011;8843;48.838;9.324;2023-04-24T09:41:38;1.00;;;1.00;;
17451;SDS011;8843;48.838;9.324;2023-04-24T09:44:11;1.40;;;1.30;;
17451;SDS011;8843;48.838;9.324;2023-04-24T09:46:40;1.83;;;1.47;;
17451;SDS011;8843;48.838;9.324;2023-04-24T09:49:08;1.30;;;1.20;;
17451;SDS011;8843;48.838;9.324;2023-04-24T09:51:36;1.90;;;1.27;;
17451;SDS011;8843;48.838;9.324;2023-04-24T09:54:04;1.30;;;1.20;;
17451;SDS011;8843;48.838;9.324;2023-04-24T09:56:40;1.50;;;1.40;;
17451;SDS011;8843;48.838;9.324;2023-04-24T09:59:10;3.00;;;1.80;;
17451;SDS011;8843;48.838;9.324;2023-04-24T10:01:37;1.30;;;1.20;;
17451;SDS011;8843;48.838;9.324;2023-04-24T10:04:12;2.87;;;1.43;;
17451;SDS011;8843;48.838;9.324;2023-04-24T10:06:42;1.83;;;1.60;;
17451;SDS011;8843;48.838;9.324;2023-04-24T10:09:09;1.60;;;1.40;;
17451;SDS011;8843;48.838;9.324;2023-04-24T10:11:41;2.17;;;1.20;;
17451;SDS011;8843;48.838;9.324;2023-04-24T10:14:10;1.50;;;1.33;;
17451;SDS011;8843;48.838;9.324;2023-04-24T10:16:39;1.27;;;1.17;;
17451;SDS011;8843;48.838;9.324;2023-04-24T10:19:06;2.63;;;1.33;;
17451;SDS011;8843;48.838;9.324;2023-04-24T10:21:34;1.33;;;1.23;;
17451;SDS011;8843;48.838;9.324;2023-04-24T10:24:02;1.33;;;1.23;;
17451;SDS011;8843;48.838;9.324;2023-04-24T10:26:32;1.27;;;1.20;;
17451;SDS011;8843;48.838;9.324;2023-04-24T10:29:01;2.33;;;1.20;;
17451;SDS011;8843;48.838;9.324;2023-04-24T10:31:30;1.23;;;1.13;;
17451;SDS011;8843;48.838;9.324;2023-04-24T10:33:58;1.27;;;1.20;;
17451;SDS011;8843;48.838;9.324;2023-04-24T10:36:27;2.40;;;1.10;;
17451;SDS011;8843;48.838;9.324;2023-04-24T10:38:57;1.53;;;1.30;;
17451;SDS011;8843;48.838;9.324;2023-04-24T10:41:27;1.00;;;1.00;;
17451;SDS011;8843;48.838;9.324;2023-04-24T10:44:07;1.00;;;1.00;;
17451;SDS011;8843;48.838;9.324;2023-04-24T10:46:35;1.30;;;1.17;;
17451;SDS011;8843;48.838;9.324;2023-04-24T10:49:03;1.13;;;1.03;;
17451;SDS011;8843;48.838;9.324;2023-04-24T10:54:24;1.67;;;1.57;;
17451;SDS011;8843;48.838;9.324;2023-04-24T10:56:51;1.57;;;1.47;;
17451;SDS011;8843;48.838;9.324;2023-04-24T10:59:26;1.97;;;1.13;;
17451;SDS011;8843;48.838;9.324;2023-04-24T11:01:54;1.73;;;1.20;;
17451;SDS011;8843;48.838;9.324;2023-04-24T11:04:31;3.10;;;1.40;;
17451;SDS011;8843;48.838;9.324;2023-04-24T11:07:00;1.30;;;1.20;;
17451;SDS011;8843;48.838;9.324;2023-04-24T11:09:28;1.97;;;1.87;;
17451;SDS011;8843;48.838;9.324;2023-04-24T11:12:03;1.83;;;1.30;;
17451;SDS011;8843;48.838;9.324;2023-04-24T11:17:31;1.73;;;1.27;;
17451;SDS011;8843;48.838;9.324;2023-04-24T11:20:02;1.90;;;1.30;;
17451;SDS011;8843;48.838;9.324;2023-04-24T11:22:32;2.20;;;1.27;;
17451;SDS011;8843;48.838;9.324;2023-04-24T11:25:01;2.03;;;1.37;;
17451;SDS011;8843;48.838;9.324;2023-04-24T11:27:29;1.50;;;1.40;;
17451;SDS011;8843;48.838;9.324;2023-04-24T11:30:02;4.13;;;1.30;;
17451;SDS011;8843;48.838;9.324;2023-04-24T11:32:33;3.60;;;1.30;;
17451;SDS011;8843;48.838;9.324;2023-04-24T11:35:04;1.20;;;1.20;;
17451;SDS011;8843;48.838;9.324;2023-04-24T11:37:33;1.30;;;1.20;;
17451;SDS011;8843;48.838;9.324;2023-04-24T11:40:03;1.83;;;1.40;;
17451;SDS011;8843;48.838;9.324;2023-04-24T11:42:33;1.50;;;1.40;;
17451;SDS011;8843;48.838;9.324;2023-04-24T11:45:02;1.63;;;1.53;;
17451;SDS011;8843;48.838;9.324;2023-04-24T11:47:34;1.50;;;1.40;;
17451;SDS011;8843;48.838;9.324;2023-04-24T11:50:01;2.03;;;1.40;;
17451;SDS011;8843;48.838;9.324;2023-04-24T11:52:29;1.90;;;1.57;;
17451;SDS011;8843;48.838;9.324;2023-04-24T11:54:57;1.40;;;1.30;;
17451;SDS011;8843;48.838;9.324;2023-04-24T11:57:25;1.30;;;1.30;;
17451;SDS011;8843;48.838;9.324;2023-04-24T11:59:54;3.30;;;1.47;;
17451;SDS011;8843;48.838;9.324;2023-04-24T12:02:25;1.70;;;1.27;;
17451;SDS011;8843;48.838;9.324;2023-04-24T12:04:53;1.43;;;1.33;;
17451;SDS011;8843;48.838;9.324;2023-04-24T12:07:21;2.33;;;1.73;;
17451;SDS011;8843;48.838;9.324;2023-04-24T12:09:49;1.40;;;1.30;;
17451;SDS011;8843;48.838;9.324;2023-04-24T12:12:23;2.87;;;1.20;;
17451;SDS011;8843;48.838;9.324;2023-04-24T12:14:52;1.53;;;1.27;;
17451;SDS011;8843;48.838;9.324;2023-04-24T12:17:26;1.30;;;1.17;;
17451;SDS011;8843;48.838;9.324;2023-04-24T12:19:57;1.40;;;1.13;;
17451;SDS011;8843;48.838;9.324;2023-04-24T12:22:25;1.50;;;1.40;;
17451;SDS011;8843;48.838;9.324;2023-04-24T12:24:56;1.20;;;1.10;;
17451;SDS011;8843;48.838;9.324;2023-04-24T12:27:23;1.87;;;1.20;;
17451;SDS011;8843;48.838;9.324;2023-04-24T12:29:53;2.80;;;1.30;;
17451;SDS011;8843;48.838;9.324;2023-04-24T12:32:22;1.27;;;1.27;;
17451;SDS011;8843;48.838;9.324;2023-04-24T12:34:51;2.33;;;1.37;;
17451;SDS011;8843;48.838;9.324;2023-04-24T12:37:18;1.50;;;1.40;;
17451;SDS011;8843;48.838;9.324;2023-04-24T12:42:29;2.27;;;1.40;;
17451;SDS011;8843;48.838;9.324;2023-04-24T12:44:56;1.30;;;1.30;;
17451;SDS011;8843;48.838;9.324;2023-04-24T12:47:25;1.30;;;1.20;;
17451;SDS011;8843;48.838;9.324;2023-04-24T12:49:53;1.80;;;1.20;;
17451;SDS011;8843;48.838;9.324;2023-04-24T12:52:20;2.63;;;1.33;;
17451;SDS011;8843;48.838;9.324;2023-04-24T12:54:48;2.43;;;1.30;;
17451;SDS011;8843;48.838;9.324;2023-04-24T12:57:15;1.93;;;1.57;;
17451;SDS011;8843;48.838;9.324;2023-04-24T12:59:42;1.40;;;1.30;;
17451;SDS011;8843;48.838;9.324;2023-04-24T13:02:09;2.20;;;1.70;;
17451;SDS011;8843;48.838;9.324;2023-04-24T13:04:37;2.27;;;1.57;;
17451;SDS011;8843;48.838;9.324;2023-04-24T13:07:05;1.63;;;1.43;;
17451;SDS011;8843;48.838;9.324;2023-04-24T13:09:34;2.07;;;1.67;;
17451;SDS011;8843;48.838;9.324;2023-04-24T13:12:01;1.40;;;1.30;;
17451;SDS011;8843;48.838;9.324;2023-04-24T13:14:30;2.33;;;1.37;;
17451;SDS011;8843;48.838;9.324;2023-04-24T13:16:57;2.53;;;1.87;;
17451;SDS011;8843;48.838;9.324;2023-04-24T13:19:25;1.10;;;1.10;;
17451;SDS011;8843;48.838;9.324;2023-04-24T13:21:52;1.70;;;1.60;;
17451;SDS011;8843;48.838;9.324;2023-04-24T13:24:22;1.20;;;1.10;;
17451;SDS011;8843;48.838;9.324;2023-04-24T13:26:50;2.23;;;1.17;;
17451;SDS011;8843;48.838;9.324;2023-04-24T13:29:17;1.43;;;1.30;;
17451;SDS011;8843;48.838;9.324;2023-04-24T13:31:44;2.13;;;1.60;;
17451;SDS011;8843;48.838;9.324;2023-04-24T13:34:12;1.50;;;1.40;;
17451;SDS011;8843;48.838;9.324;2023-04-24T13:36:39;2.57;;;1.83;;
17451;SDS011;8843;48.838;9.324;2023-04-24T13:39:05;1.70;;;1.60;;
17451;SDS011;8843;48.838;9.324;2023-04-24T13:41:34;1.60;;;1.50;;
17451;SDS011;8843;48.838;9.324;2023-04-24T13:44:01;1.70;;;1.60;;
17451;SDS011;8843;48.838;9.324;2023-04-24T13:46:28;1.83;;;1.73;;
17451;SDS011;8843;48.838;9.324;2023-04-24T13:48:55;2.23;;;1.80;;
17451;SDS011;8843;48.838;9.324;2023-04-24T13:51:23;1.70;;;1.60;;
17451;SDS011;8843;48.838;9.324;2023-04-24T13:53:52;1.87;;;1.77;;
17451;SDS011;8843;48.838;9.324;2023-04-24T13:56:18;3.70;;;1.70;;
17451;SDS011;8843;48.838;9.324;2023-04-24T13:58:47;1.97;;;1.43;;
17451;SDS011;8843;48.838;9.324;2023-04-24T14:01:14;2.37;;;1.80;;
17451;SDS011;8843;48.838;9.324;2023-04-24T14:03:41;2.70;;;1.77;;
17451;SDS011;8843;48.838;9.324;2023-04-24T14:06:09;2.47;;;1.67;;
17451;SDS011;8843;48.838;9.324;2023-04-24T14:08:36;1.50;;;1.40;;
17451;SDS011;8843;48.838;9.324;2023-04-24T14:11:03;1.27;;;1.17;;
17451;SDS011;8843;48.838;9.324;2023-04-24T14:13:30;1.97;;;1.60;;
17451;SDS011;8843;48.838;9.324;2023-04-24T14:15:59;1.40;;;1.30;;
17451;SDS011;8843;48.838;9.324;2023-04-24T14:18:26;1.40;;;1.30;;
17451;SDS011;8843;48.838;9.324;2023-04-24T14:20:53;1.53;;;1.43;;
17451;SDS011;8843;48.838;9.324;2023-04-24T14:23:19;1.83;;;1.50;;
17451;SDS011;8843;48.838;9.324;2023-04-24T14:25:46;1.53;;;1.43;;
17451;SDS011;8843;48.838;9.324;2023-04-24T14:28:16;1.53;;;1.43;;
17451;SDS011;8843;48.838;9.324;2023-04-24T14:30:45;1.57;;;1.47;;
17451;SDS011;8843;48.838;9.324;2023-04-24T14:33:15;2.47;;;1.43;;
17451;SDS011;8843;48.838;9.324;2023-04-24T14:35:43;1.77;;;1.57;;
17451;SDS011;8843;48.838;9.324;2023-04-24T14:38:10;1.50;;;1.40;;
17451;SDS011;8843;48.838;9.324;2023-04-24T14:40:37;1.67;;;1.57;;
17451;SDS011;8843;48.838;9.324;2023-04-24T14:43:04;1.73;;;1.63;;
17451;SDS011;8843;48.838;9.324;2023-04-24T14:45:33;2.23;;;1.60;;
17451;SDS011;8843;48.838;9.324;2023-04-24T14:48:06;1.80;;;1.70;;
17451;SDS011;8843;48.838;9.324;2023-04-24T14:50:34;2.33;;;1.57;;
17451;SDS011;8843;48.838;9.324;2023-04-24T14:53:01;1.60;;;1.50;;
17451;SDS011;8843;48.838;9.324;2023-04-24T14:55:29;3.03;;;1.57;;
17451;SDS011;8843;48.838;9.324;2023-04-24T14:57:56;1.50;;;1.40;;
17451;SDS011;8843;48.838;9.324;2023-04-24T15:00:23;1.80;;;1.70;;
17451;SDS011;8843;48.838;9.324;2023-04-24T15:02:49;1.80;;;1.63;;
17451;SDS011;8843;48.838;9.324;2023-04-24T15:05:16;1.40;;;1.30;;
17451;SDS011;8843;48.838;9.324;2023-04-24T15:07:45;1.57;;;1.47;;
17451;SDS011;8843;48.838;9.324;2023-04-24T15:10:11;1.80;;;1.70;;
17451;SDS011;8843;48.838;9.324;2023-04-24T15:12:38;2.50;;;1.50;;